Time;durP1;ratioP1;P1;durP2;ratioP2;P2;SDS_P1;SDS_P2;PMS_P1;PMS_P2;Temp;Humidity;BMP_temperature;BMP_pressure;BME280_temperature;BME280_humidity;BME280_pressure;Samples;Min_cycle;Max_cycle;Signal;HPM_P1;HPM_P2
2023/12/07 00:02:17;;;;;;;53.88;48.75;;;;;;;;;;5009023;28;25051;-73
2023/12/07 00:04:43;;;;;;;51.30;46.55;;;;;;;;;;5004537;28;25077;-70
2023/12/07 00:07:09;;;;;;;50.33;45.80;;;;;;;;;;5010501;28;25067;-70
2023/12/07 00:09:35;;;;;;;50.58;46.03;;;;;;;;;;5010811;28;25062;-71
2023/12/07 00:12:01;;;;;;;56.80;51.13;;;;;;;;;;5010131;28;25083;-70
2023/12/07 00:14:27;;;;;;;52.08;47.10;;;;;;;;;;5011831;28;25057;-72
2023/12/07 00:16:54;;;;;;;54.45;49.55;;;;;;;;;;5008422;28;25068;-71
2023/12/07 00:19:20;;;;;;;56.55;51.30;;;;;;;;;;5007420;28;25054;-71
2023/12/07 00:21:46;;;;;;;53.95;49.25;;;;;;;;;;5008675;28;25069;-71
2023/12/07 00:24:12;;;;;;;53.22;48.38;;;;;;;;;;5008702;28;25080;-71
2023/12/07 00:26:38;;;;;;;54.92;49.80;;;;;;;;;;5008163;28;25181;-72
2023/12/07 00:29:04;;;;;;;47.00;43.03;;;;;;;;;;5007051;28;25057;-71
2023/12/07 00:31:30;;;;;;;46.60;42.35;;;;;;;;;;5006087;28;25097;-71
2023/12/07 00:33:56;;;;;;;47.13;42.55;;;;;;;;;;5005959;28;25132;-71
2023/12/07 00:36:22;;;;;;;50.42;45.60;;;;;;;;;;5007941;28;25065;-71
2023/12/07 00:38:48;;;;;;;51.38;46.67;;;;;;;;;;5008447;28;25050;-71
2023/12/07 00:41:14;;;;;;;50.45;45.90;;;;;;;;;;5003402;28;25075;-72
2023/12/07 00:43:40;;;;;;;52.90;47.67;;;;;;;;;;5007655;28;25056;-70
2023/12/07 00:46:07;;;;;;;50.58;46.10;;;;;;;;;;5007712;28;25100;-70
2023/12/07 00:48:33;;;;;;;50.58;45.88;;;;;;;;;;5005522;28;25060;-71
2023/12/07 00:50:59;;;;;;;51.38;46.25;;;;;;;;;;5004148;28;25141;-72
2023/12/07 00:53:25;;;;;;;50.78;45.88;;;;;;;;;;5003460;28;25091;-70
2023/12/07 00:55:51;;;;;;;50.53;45.58;;;;;;;;;;5008054;28;25104;-71
2023/12/07 00:58:17;;;;;;;50.75;45.75;;;;;;;;;;5009299;28;25052;-70
2023/12/07 01:00:44;;;;;;;48.97;44.42;;;;;;;;;;5007856;28;25057;-71
2023/12/07 01:03:10;;;;;;;49.72;45.03;;;;;;;;;;5010240;28;25057;-71
2023/12/07 01:05:36;;;;;;;45.08;41.22;;;;;;;;;;5008843;28;25063;-71
2023/12/07 01:08:03;;;;;;;48.05;43.78;;;;;;;;;;5008531;28;25071;-70
2023/12/07 01:10:29;;;;;;;46.40;42.10;;;;;;;;;;5006430;28;25074;-69
2023/12/07 01:12:55;;;;;;;46.58;42.25;;;;;;;;;;5007325;28;25052;-70
2023/12/07 01:15:21;;;;;;;45.03;41.28;;;;;;;;;;5008948;28;25067;-71
2023/12/07 01:17:47;;;;;;;48.28;43.97;;;;;;;;;;5012263;28;25084;-72
2023/12/07 01:20:13;;;;;;;48.20;43.40;;;;;;;;;;5012029;28;25062;-71
2023/12/07 01:22:42;;;;;;;45.70;41.72;;;;;;;;;;5013881;28;25049;-70
2023/12/07 01:25:08;;;;;;;46.03;41.85;;;;;;;;;;5012129;28;25068;-73
2023/12/07 01:27:35;;;;;;;44.90;41.00;;;;;;;;;;5012372;28;25057;-70
2023/12/07 01:30:01;;;;;;;48.05;43.42;;;;;;;;;;5014682;28;25098;-72
2023/12/07 01:32:27;;;;;;;43.70;39.45;;;;;;;;;;5011024;28;25100;-71
2023/12/07 01:34:53;;;;;;;46.55;42.20;;;;;;;;;;5012020;28;25048;-71
2023/12/07 01:37:19;;;;;;;43.05;39.15;;;;;;;;;;5009533;28;25177;-71
2023/12/07 01:39:45;;;;;;;42.17;38.67;;;;;;;;;;5005288;28;25092;-71
2023/12/07 01:42:12;;;;;;;43.80;40.20;;;;;;;;;;5004565;28;25108;-72
2023/12/07 01:44:38;;;;;;;40.20;36.55;;;;;;;;;;5004694;28;25101;-70
2023/12/07 01:47:04;;;;;;;44.40;40.65;;;;;;;;;;5008457;28;25117;-71
2023/12/07 01:49:31;;;;;;;42.63;38.85;;;;;;;;;;5006289;28;25099;-71
2023/12/07 01:51:57;;;;;;;39.80;36.63;;;;;;;;;;5005845;28;25065;-71
2023/12/07 01:54:23;;;;;;;42.70;39.10;;;;;;;;;;5012483;28;25077;-71
2023/12/07 01:56:49;;;;;;;41.45;37.90;;;;;;;;;;5007971;28;25130;-71
2023/12/07 01:59:15;;;;;;;44.60;40.75;;;;;;;;;;5008172;28;25138;-71
2023/12/07 02:01:41;;;;;;;43.25;39.33;;;;;;;;;;5008236;28;25100;-70
2023/12/07 02:04:07;;;;;;;44.13;40.25;;;;;;;;;;5019857;28;25042;-71
2023/12/07 02:06:33;;;;;;;42.85;39.15;;;;;;;;;;5010837;28;25047;-70
2023/12/07 02:08:59;;;;;;;42.92;38.95;;;;;;;;;;5008032;28;25083;-71
2023/12/07 02:11:25;;;;;;;43.80;40.10;;;;;;;;;;5010220;28;25121;-71
2023/12/07 02:13:55;;;;;;;41.88;37.97;;;;;;;;;;5010232;28;25136;-70
2023/12/07 02:16:26;;;;;;;41.00;37.13;;;;;;;;;;5015855;28;25079;-71
2023/12/07 02:19:08;;;;;;;42.08;38.10;;;;;;;;;;5018814;28;25124;-71
2023/12/07 02:21:38;;;;;;;43.75;39.85;;;;;;;;;;5014086;28;25051;-72
2023/12/07 02:24:06;;;;;;;44.88;40.97;;;;;;;;;;5012682;28;25067;-71
2023/12/07 02:26:35;;;;;;;46.50;42.08;;;;;;;;;;5012420;28;25063;-71
2023/12/07 02:29:01;;;;;;;46.13;41.70;;;;;;;;;;5016807;28;25136;-72
2023/12/07 02:31:28;;;;;;;45.40;41.33;;;;;;;;;;5024250;28;25065;-71
2023/12/07 02:33:54;;;;;;;44.08;40.33;;;;;;;;;;5029483;28;25059;-72
2023/12/07 02:36:21;;;;;;;44.45;40.38;;;;;;;;;;5027613;28;25070;-72
2023/12/07 02:38:47;;;;;;;43.55;39.53;;;;;;;;;;5029041;28;25073;-72
2023/12/07 02:41:14;;;;;;;47.78;43.40;;;;;;;;;;5027760;28;25055;-74
2023/12/07 02:43:40;;;;;;;45.50;40.90;;;;;;;;;;5019156;28;25084;-72
2023/12/07 02:46:06;;;;;;;45.05;40.85;;;;;;;;;;5020821;28;25068;-72
2023/12/07 02:48:32;;;;;;;45.70;41.50;;;;;;;;;;5018739;28;25126;-71
2023/12/07 02:50:58;;;;;;;47.17;42.78;;;;;;;;;;5014910;28;25160;-70
2023/12/07 02:53:24;;;;;;;47.50;42.58;;;;;;;;;;5016072;28;25077;-72
2023/12/07 02:55:50;;;;;;;41.47;37.63;;;;;;;;;;5011230;28;25112;-70
2023/12/07 02:58:16;;;;;;;45.13;40.90;;;;;;;;;;5026061;28;25114;-72
2023/12/07 03:00:42;;;;;;;44.22;40.33;;;;;;;;;;5011958;28;25073;-71
2023/12/07 03:03:08;;;;;;;45.35;40.88;;;;;;;;;;5011069;28;25071;-71
2023/12/07 03:05:34;;;;;;;45.97;41.60;;;;;;;;;;5010193;28;25088;-71
2023/12/07 03:08:00;;;;;;;47.88;43.08;;;;;;;;;;5007842;28;25156;-71
2023/12/07 03:10:26;;;;;;;44.53;39.88;;;;;;;;;;5022099;28;25058;-71
2023/12/07 03:12:51;;;;;;;44.55;40.20;;;;;;;;;;5014032;28;25068;-72
2023/12/07 03:15:18;;;;;;;44.67;40.47;;;;;;;;;;5013604;28;25154;-70
2023/12/07 03:17:44;;;;;;;44.47;40.42;;;;;;;;;;5011105;28;25086;-71
2023/12/07 03:20:10;;;;;;;46.65;41.70;;;;;;;;;;5012622;28;25146;-71
2023/12/07 03:22:36;;;;;;;48.60;43.65;;;;;;;;;;5007711;28;25105;-71
2023/12/07 03:25:02;;;;;;;50.88;45.78;;;;;;;;;;5009574;28;25081;-71
2023/12/07 03:27:28;;;;;;;54.97;49.33;;;;;;;;;;5006253;28;25077;-71
2023/12/07 03:29:54;;;;;;;58.08;52.00;;;;;;;;;;5010730;28;25111;-71
2023/12/07 03:32:20;;;;;;;57.35;50.92;;;;;;;;;;5012682;28;25103;-73
2023/12/07 03:34:46;;;;;;;65.93;58.38;;;;;;;;;;5012822;28;25079;-71
2023/12/07 03:37:12;;;;;;;52.38;47.45;;;;;;;;;;5014628;28;25055;-71
2023/12/07 03:39:38;;;;;;;75.45;61.85;;;;;;;;;;5013068;28;25054;-73
2023/12/07 03:42:04;;;;;;;66.60;56.05;;;;;;;;;;5013918;28;25154;-72
2023/12/07 03:44:30;;;;;;;76.57;62.60;;;;;;;;;;5012643;28;25068;-71
2023/12/07 03:46:56;;;;;;;104.18;73.13;;;;;;;;;;5013095;28;25068;-72
2023/12/07 03:49:22;;;;;;;106.53;74.13;;;;;;;;;;5017825;28;25076;-72
2023/12/07 03:51:48;;;;;;;151.38;79.03;;;;;;;;;;5015550;28;25063;-72
2023/12/07 03:54:14;;;;;;;227.15;81.15;;;;;;;;;;5013025;28;25067;-71
2023/12/07 03:56:40;;;;;;;209.23;77.97;;;;;;;;;;5014464;28;25063;-71
2023/12/07 03:59:06;;;;;;;282.55;91.47;;;;;;;;;;5011731;28;25046;-70
2023/12/07 04:01:32;;;;;;;360.33;92.78;;;;;;;;;;5028474;28;25063;-71
2023/12/07 04:04:00;;;;;;;292.30;95.15;;;;;;;;;;5012358;28;25075;-71
2023/12/07 04:06:26;;;;;;;249.63;83.07;;;;;;;;;;5011187;28;25088;-72
2023/12/07 04:08:52;;;;;;;373.55;101.07;;;;;;;;;;5009614;28;25128;-71
2023/12/07 04:11:19;;;;;;;342.85;92.18;;;;;;;;;;5012980;28;25053;-72
2023/12/07 04:13:45;;;;;;;183.80;76.00;;;;;;;;;;5012379;28;25072;-71
2023/12/07 04:16:11;;;;;;;325.27;94.07;;;;;;;;;;5017142;28;25061;-70
2023/12/07 04:18:37;;;;;;;364.73;99.82;;;;;;;;;;5020457;28;25055;-72
2023/12/07 04:21:04;;;;;;;340.45;101.35;;;;;;;;;;5023106;28;25114;-71
2023/12/07 04:23:30;;;;;;;294.88;90.75;;;;;;;;;;5021369;28;25047;-72
2023/12/07 04:25:56;;;;;;;318.73;89.22;;;;;;;;;;5017601;28;25055;-71
2023/12/07 04:28:22;;;;;;;246.70;83.93;;;;;;;;;;5013831;28;25100;-71
2023/12/07 04:30:48;;;;;;;239.65;72.55;;;;;;;;;;5009561;28;25073;-70
2023/12/07 04:33:14;;;;;;;345.15;94.35;;;;;;;;;;5009065;28;25064;-72
2023/12/07 04:35:40;;;;;;;420.13;84.78;;;;;;;;;;5007145;28;25081;-71
2023/12/07 04:38:06;;;;;;;456.83;105.70;;;;;;;;;;5004125;28;25090;-72
2023/12/07 04:40:32;;;;;;;363.73;79.13;;;;;;;;;;5010885;28;25112;-71
2023/12/07 04:42:58;;;;;;;239.73;75.10;;;;;;;;;;5008976;28;25054;-72
2023/12/07 04:45:24;;;;;;;340.45;72.50;;;;;;;;;;5010597;28;25072;-71
2023/12/07 04:47:50;;;;;;;379.55;81.28;;;;;;;;;;5006982;28;25081;-70
2023/12/07 04:50:16;;;;;;;264.08;76.20;;;;;;;;;;5009199;28;25053;-71
2023/12/07 04:52:42;;;;;;;299.10;78.50;;;;;;;;;;5010262;28;25080;-71
2023/12/07 04:55:08;;;;;;;172.10;61.90;;;;;;;;;;5009985;28;25059;-71
2023/12/07 04:57:35;;;;;;;212.88;60.25;;;;;;;;;;5009748;28;25077;-72
2023/12/07 05:00:01;;;;;;;224.95;60.08;;;;;;;;;;5015666;28;25057;-72
2023/12/07 05:02:27;;;;;;;253.00;65.90;;;;;;;;;;5013070;28;25061;-71
2023/12/07 05:04:53;;;;;;;285.55;64.22;;;;;;;;;;5010182;28;25052;-71
2023/12/07 05:07:20;;;;;;;211.55;59.97;;;;;;;;;;5007011;28;25099;-70
2023/12/07 05:09:46;;;;;;;308.45;67.25;;;;;;;;;;5016230;28;25066;-72
2023/12/07 05:12:12;;;;;;;315.50;68.65;;;;;;;;;;5012268;28;25089;-72
2023/12/07 05:14:38;;;;;;;289.08;69.78;;;;;;;;;;5005842;28;25179;-72
2023/12/07 05:17:05;;;;;;;207.95;59.50;;;;;;;;;;5010653;28;25468;-71
2023/12/07 05:19:31;;;;;;;191.32;61.03;;;;;;;;;;5009816;28;25109;-72
2023/12/07 05:21:57;;;;;;;231.55;65.25;;;;;;;;;;5009176;28;25055;-71
2023/12/07 05:24:22;;;;;;;100.43;54.85;;;;;;;;;;5008395;28;25059;-72
2023/12/07 05:26:49;;;;;;;176.85;58.95;;;;;;;;;;5009943;28;25085;-73
2023/12/07 05:29:15;;;;;;;200.50;60.75;;;;;;;;;;5010108;28;25133;-71
2023/12/07 05:31:42;;;;;;;107.55;52.55;;;;;;;;;;5009409;28;25090;-71
2023/12/07 05:34:08;;;;;;;148.32;57.00;;;;;;;;;;5006913;28;25088;-72
2023/12/07 05:36:34;;;;;;;177.43;62.40;;;;;;;;;;5010937;28;25073;-71
2023/12/07 05:39:00;;;;;;;209.88;60.03;;;;;;;;;;5009114;28;25076;-71
2023/12/07 05:41:26;;;;;;;196.93;60.13;;;;;;;;;;5023297;28;25058;-71
2023/12/07 05:43:52;;;;;;;233.52;62.08;;;;;;;;;;5027697;28;25055;-71
2023/12/07 05:46:18;;;;;;;219.85;65.43;;;;;;;;;;5025275;28;25067;-72
2023/12/07 05:48:44;;;;;;;238.90;64.25;;;;;;;;;;5017608;28;25081;-72
2023/12/07 05:51:14;;;;;;;89.85;50.15;;;;;;;;;;5017239;28;25075;-72
2023/12/07 05:53:40;;;;;;;303.25;68.25;;;;;;;;;;5024492;28;25135;-72
2023/12/07 05:56:06;;;;;;;278.70;70.38;;;;;;;;;;5024749;28;25088;-69
2023/12/07 05:58:32;;;;;;;279.08;70.15;;;;;;;;;;5021247;28;25085;-71
2023/12/07 06:00:59;;;;;;;186.52;58.33;;;;;;;;;;5010941;28;25067;-73
2023/12/07 06:03:25;;;;;;;261.10;72.40;;;;;;;;;;5012816;28;25059;-71
2023/12/07 06:05:51;;;;;;;263.85;61.63;;;;;;;;;;5019159;28;25061;-72
2023/12/07 06:08:17;;;;;;;172.07;60.90;;;;;;;;;;5025819;28;25121;-72
2023/12/07 06:10:43;;;;;;;227.35;69.15;;;;;;;;;;5022124;28;25064;-72
2023/12/07 06:13:10;;;;;;;257.45;68.05;;;;;;;;;;5018451;28;25061;-69
2023/12/07 06:15:36;;;;;;;206.32;61.17;;;;;;;;;;5008753;28;25140;-71
2023/12/07 06:18:03;;;;;;;181.55;61.50;;;;;;;;;;5008523;28;25056;-71
2023/12/07 06:20:29;;;;;;;283.08;72.43;;;;;;;;;;5008828;28;25053;-70
2023/12/07 06:22:55;;;;;;;190.23;64.65;;;;;;;;;;5005901;28;25056;-70
2023/12/07 06:25:21;;;;;;;163.15;60.88;;;;;;;;;;5003565;28;25061;-72
2023/12/07 06:27:47;;;;;;;196.35;65.03;;;;;;;;;;5005693;28;25150;-71
2023/12/07 06:30:13;;;;;;;171.02;61.72;;;;;;;;;;5004667;28;25105;-72
2023/12/07 06:32:39;;;;;;;139.77;57.05;;;;;;;;;;5012637;28;25098;-72
2023/12/07 06:35:06;;;;;;;178.93;62.30;;;;;;;;;;5014182;28;25090;-71
2023/12/07 06:37:32;;;;;;;162.40;61.58;;;;;;;;;;5018189;28;25155;-71
2023/12/07 06:39:59;;;;;;;162.27;60.08;;;;;;;;;;5016192;28;25071;-71
2023/12/07 06:42:26;;;;;;;169.80;60.20;;;;;;;;;;5018719;28;25043;-70
2023/12/07 06:44:52;;;;;;;231.68;72.65;;;;;;;;;;5015453;28;25081;-72
2023/12/07 06:47:18;;;;;;;234.38;69.63;;;;;;;;;;5017196;28;25130;-71
2023/12/07 06:49:46;;;;;;;181.10;61.15;;;;;;;;;;5010834;28;25045;-71
2023/12/07 06:52:12;;;;;;;97.07;54.30;;;;;;;;;;5010333;28;25066;-72
2023/12/07 06:54:41;;;;;;;156.02;61.33;;;;;;;;;;5027724;28;25067;-70
2023/12/07 06:57:06;;;;;;;214.52;67.28;;;;;;;;;;5010124;28;25078;-71
2023/12/07 06:59:33;;;;;;;240.10;70.93;;;;;;;;;;5012867;28;25057;-71
2023/12/07 07:01:59;;;;;;;221.23;71.97;;;;;;;;;;5010343;28;25066;-70
2023/12/07 07:04:25;;;;;;;175.13;64.38;;;;;;;;;;5010201;28;25154;-71
2023/12/07 07:06:51;;;;;;;164.20;63.47;;;;;;;;;;5010859;28;25058;-71
2023/12/07 07:09:17;;;;;;;145.35;59.30;;;;;;;;;;5015416;28;25057;-73
2023/12/07 07:11:47;;;;;;;203.77;65.40;;;;;;;;;;5008675;28;25072;-71
2023/12/07 07:14:13;;;;;;;196.23;65.38;;;;;;;;;;5010148;28;25078;-71
2023/12/07 07:16:39;;;;;;;204.00;64.45;;;;;;;;;;5011056;28;25135;-73
2023/12/07 07:19:05;;;;;;;140.70;59.97;;;;;;;;;;5016605;28;25141;-71
2023/12/07 07:21:31;;;;;;;150.13;60.67;;;;;;;;;;5018435;28;25053;-71
2023/12/07 07:23:58;;;;;;;269.05;72.28;;;;;;;;;;5010401;28;25115;-70
2023/12/07 07:26:25;;;;;;;271.20;74.00;;;;;;;;;;5009551;28;25060;-73
2023/12/07 07:28:51;;;;;;;105.03;54.80;;;;;;;;;;5010152;28;25071;-71
2023/12/07 07:31:17;;;;;;;252.27;66.32;;;;;;;;;;5026241;28;25064;-71
2023/12/07 07:33:44;;;;;;;216.02;66.00;;;;;;;;;;5010466;28;25081;-72
2023/12/07 07:36:11;;;;;;;211.95;64.03;;;;;;;;;;5023530;28;25068;-71
2023/12/07 07:38:37;;;;;;;263.27;67.68;;;;;;;;;;5005746;28;25056;-72
2023/12/07 07:41:03;;;;;;;190.25;62.97;;;;;;;;;;5012847;28;25068;-72
2023/12/07 07:43:29;;;;;;;280.33;70.70;;;;;;;;;;5012701;28;25069;-71
2023/12/07 07:45:55;;;;;;;346.27;77.93;;;;;;;;;;5007010;28;25124;-72
2023/12/07 07:48:21;;;;;;;289.02;73.32;;;;;;;;;;5004876;28;25057;-72
2023/12/07 07:50:47;;;;;;;317.02;70.05;;;;;;;;;;5007446;28;25133;-71
2023/12/07 07:53:13;;;;;;;233.45;67.03;;;;;;;;;;5002387;28;25058;-73
2023/12/07 07:55:39;;;;;;;242.88;69.05;;;;;;;;;;5005636;28;25057;-71
2023/12/07 07:58:06;;;;;;;302.67;69.70;;;;;;;;;;5007325;28;25081;-72
2023/12/07 08:00:32;;;;;;;281.85;67.95;;;;;;;;;;5006265;28;25096;-73
2023/12/07 08:02:58;;;;;;;298.00;70.07;;;;;;;;;;5004204;28;25126;-73
2023/12/07 08:05:24;;;;;;;374.67;80.30;;;;;;;;;;5006479;28;25088;-72
2023/12/07 08:07:51;;;;;;;364.23;75.05;;;;;;;;;;5005086;28;25145;-71
2023/12/07 08:10:17;;;;;;;234.80;63.10;;;;;;;;;;5006359;28;25093;-72
2023/12/07 08:12:43;;;;;;;311.33;73.25;;;;;;;;;;5002446;28;25068;-72
2023/12/07 08:15:10;;;;;;;284.38;69.22;;;;;;;;;;5006336;28;25046;-71
2023/12/07 08:17:37;;;;;;;305.33;69.00;;;;;;;;;;5001478;28;25080;-72
2023/12/07 08:20:04;;;;;;;344.98;75.60;;;;;;;;;;5002737;28;25157;-71
2023/12/07 08:22:30;;;;;;;359.25;76.40;;;;;;;;;;5005635;28;25078;-72
2023/12/07 08:24:56;;;;;;;305.80;74.55;;;;;;;;;;5004844;28;25057;-73
2023/12/07 08:27:22;;;;;;;297.40;75.57;;;;;;;;;;5006764;28;25064;-72
2023/12/07 08:29:48;;;;;;;288.85;77.57;;;;;;;;;;5006069;28;25067;-72
2023/12/07 08:32:15;;;;;;;296.63;75.75;;;;;;;;;;5004492;28;25139;-72
2023/12/07 08:34:41;;;;;;;270.25;75.10;;;;;;;;;;5002627;28;25058;-72
2023/12/07 08:37:07;;;;;;;295.05;79.65;;;;;;;;;;5005719;28;25055;-71
2023/12/07 08:39:33;;;;;;;302.30;78.28;;;;;;;;;;5005401;28;25077;-72
2023/12/07 08:41:59;;;;;;;301.88;79.38;;;;;;;;;;5005291;28;25147;-73
2023/12/07 08:44:25;;;;;;;351.38;84.90;;;;;;;;;;5004886;28;25171;-73
2023/12/07 08:46:51;;;;;;;247.13;73.10;;;;;;;;;;5005744;28;25077;-73
2023/12/07 08:49:17;;;;;;;275.17;75.65;;;;;;;;;;5004481;28;25119;-72
2023/12/07 08:51:43;;;;;;;285.25;78.88;;;;;;;;;;5006463;28;25070;-71
2023/12/07 08:54:09;;;;;;;152.25;61.90;;;;;;;;;;5006504;28;25094;-72
2023/12/07 08:56:35;;;;;;;227.07;69.68;;;;;;;;;;5007079;28;25051;-72
2023/12/07 08:59:02;;;;;;;232.98;74.53;;;;;;;;;;5020961;28;25076;-72
2023/12/07 09:01:30;;;;;;;213.27;70.10;;;;;;;;;;5020794;28;25053;-71
2023/12/07 09:03:56;;;;;;;215.35;71.88;;;;;;;;;;5016668;28;25056;-72
2023/12/07 09:06:22;;;;;;;168.82;66.05;;;;;;;;;;5010636;28;25122;-72
2023/12/07 09:08:48;;;;;;;205.73;69.88;;;;;;;;;;5005707;28;25083;-74
2023/12/07 09:11:14;;;;;;;166.32;65.10;;;;;;;;;;5008813;28;25053;-72
2023/12/07 09:13:40;;;;;;;181.88;67.75;;;;;;;;;;5004848;28;25069;-72
2023/12/07 09:16:06;;;;;;;151.02;64.07;;;;;;;;;;5005976;28;25078;-72
2023/12/07 09:18:32;;;;;;;136.18;63.22;;;;;;;;;;5006508;28;25065;-72
2023/12/07 09:20:58;;;;;;;135.65;64.45;;;;;;;;;;5005079;28;25078;-72
2023/12/07 09:23:24;;;;;;;129.88;61.13;;;;;;;;;;5005079;28;25138;-71
2023/12/07 09:25:50;;;;;;;127.10;60.05;;;;;;;;;;5005368;28;25107;-73
2023/12/07 09:28:16;;;;;;;127.32;60.90;;;;;;;;;;5005253;28;25158;-72
2023/12/07 09:30:42;;;;;;;136.88;64.97;;;;;;;;;;5005582;28;25078;-71
2023/12/07 09:33:08;;;;;;;152.80;65.78;;;;;;;;;;5003076;28;25077;-71
2023/12/07 09:35:34;;;;;;;164.43;68.75;;;;;;;;;;5005841;28;25153;-71
2023/12/07 09:38:00;;;;;;;134.75;64.18;;;;;;;;;;5002840;28;25065;-73
2023/12/07 09:40:27;;;;;;;137.25;63.38;;;;;;;;;;5005055;28;25062;-72
2023/12/07 09:42:54;;;;;;;136.30;65.70;;;;;;;;;;5005510;28;25067;-74
2023/12/07 09:45:21;;;;;;;136.90;65.20;;;;;;;;;;5003707;28;25096;-72
2023/12/07 09:47:51;;;;;;;110.70;58.65;;;;;;;;;;5004755;28;25141;-71
2023/12/07 09:50:18;;;;;;;120.28;60.78;;;;;;;;;;5017203;28;25087;-74
2023/12/07 09:52:44;;;;;;;105.07;60.05;;;;;;;;;;5004789;28;25131;-73
2023/12/07 09:55:10;;;;;;;113.72;59.47;;;;;;;;;;5002022;28;25065;-73
2023/12/07 09:57:39;;;;;;;85.88;54.58;;;;;;;;;;5002819;28;25053;-72
2023/12/07 10:00:09;;;;;;;108.07;61.78;;;;;;;;;;5003165;28;25059;-73
2023/12/07 10:02:38;;;;;;;100.53;59.47;;;;;;;;;;5004755;28;25146;-73
2023/12/07 10:05:10;;;;;;;74.65;54.50;;;;;;;;;;5004565;28;25080;-72
2023/12/07 10:07:40;;;;;;;94.47;57.45;;;;;;;;;;5003549;28;25079;-72
2023/12/07 10:10:06;;;;;;;90.28;58.70;;;;;;;;;;5002909;28;25127;-71
2023/12/07 10:12:36;;;;;;;94.57;58.42;;;;;;;;;;5001483;28;25075;-71
2023/12/07 10:15:13;;;;;;;86.68;57.78;;;;;;;;;;5008129;28;25067;-72
2023/12/07 10:17:49;;;;;;;104.68;60.45;;;;;;;;;;5024124;28;25179;-75
2023/12/07 10:20:18;;;;;;;81.50;54.47;;;;;;;;;;5008939;28;25069;-72
2023/12/07 10:22:48;;;;;;;85.90;56.05;;;;;;;;;;5019975;28;25084;-72
2023/12/07 10:25:14;;;;;;;85.80;57.60;;;;;;;;;;5011564;28;25064;-73
2023/12/07 10:27:43;;;;;;;93.25;58.08;;;;;;;;;;5010550;28;25181;-71
2023/12/07 10:30:11;;;;;;;88.50;58.95;;;;;;;;;;5011980;28;25072;-73
2023/12/07 10:32:38;;;;;;;94.53;57.88;;;;;;;;;;5011970;28;25154;-72
2023/12/07 10:35:04;;;;;;;88.20;56.03;;;;;;;;;;5007829;28;25098;-73
2023/12/07 10:37:31;;;;;;;82.45;56.42;;;;;;;;;;5010195;28;25051;-72
2023/12/07 10:39:57;;;;;;;78.93;56.65;;;;;;;;;;5006034;28;25145;-71
2023/12/07 10:42:25;;;;;;;70.93;53.05;;;;;;;;;;5023327;28;25079;-72
2023/12/07 10:44:53;;;;;;;66.25;50.75;;;;;;;;;;5006017;28;25141;-72
2023/12/07 10:47:20;;;;;;;69.43;50.20;;;;;;;;;;5010700;28;25138;-73
2023/12/07 10:49:48;;;;;;;71.30;51.50;;;;;;;;;;5007837;28;25073;-72
2023/12/07 10:52:16;;;;;;;62.53;50.85;;;;;;;;;;5010494;28;25044;-71
2023/12/07 10:54:59;;;;;;;73.88;52.83;;;;;;;;;;5007971;28;25076;-73
2023/12/07 10:57:26;;;;;;;67.05;53.63;;;;;;;;;;5008272;28;25058;-71
2023/12/07 10:59:53;;;;;;;70.80;54.78;;;;;;;;;;5002753;28;25059;-72
2023/12/07 11:02:20;;;;;;;68.50;52.40;;;;;;;;;;5004795;28;25079;-73
2023/12/07 11:04:46;;;;;;;76.28;54.03;;;;;;;;;;5011618;28;25055;-72
2023/12/07 11:07:18;;;;;;;71.15;54.22;;;;;;;;;;5006590;28;25144;-73
2023/12/07 11:09:44;;;;;;;;;;;;;;;;;;4999713;28;25106;-72
2023/12/07 11:12:25;;;;;;;72.70;56.20;;;;;;;;;;5006505;28;25120;-71
2023/12/07 11:14:51;;;;;;;68.82;54.78;;;;;;;;;;5005523;28;25140;-71
2023/12/07 11:17:17;;;;;;;66.32;55.58;;;;;;;;;;5010149;28;25075;-71
2023/12/07 11:19:44;;;;;;;76.38;57.15;;;;;;;;;;5004207;28;25055;-71
2023/12/07 11:22:13;;;;;;;73.75;56.60;;;;;;;;;;5009487;28;25070;-73
2023/12/07 11:24:53;;;;;;;70.97;55.88;;;;;;;;;;5007418;28;25133;-73
2023/12/07 11:27:19;;;;;;;70.18;55.63;;;;;;;;;;5004450;28;25083;-72
2023/12/07 11:29:48;;;;;;;65.53;55.55;;;;;;;;;;5006483;28;25074;-71
2023/12/07 11:32:14;;;;;;;68.57;56.40;;;;;;;;;;5007743;28;25069;-73
2023/12/07 11:34:43;;;;;;;72.68;57.35;;;;;;;;;;5011040;28;25075;-72
2023/12/07 11:37:10;;;;;;;66.70;54.00;;;;;;;;;;5013533;28;25069;-71
2023/12/07 11:39:43;;;;;;;67.88;57.30;;;;;;;;;;5012594;28;25054;-71
2023/12/07 11:42:09;;;;;;;;;;;;;;;;;;5007478;28;25057;-71
2023/12/07 11:44:35;;;;;;;68.80;56.42;;;;;;;;;;5012280;28;24074;-76
2023/12/07 11:47:01;;;;;;;69.07;58.22;;;;;;;;;;5013901;28;25074;-72
2023/12/07 11:49:30;;;;;;;67.28;58.03;;;;;;;;;;5011579;28;25066;-73
2023/12/07 11:51:55;;;;;;;64.55;57.63;;;;;;;;;;5006552;28;25069;-72
2023/12/07 11:54:22;;;;;;;64.32;57.45;;;;;;;;;;5020791;28;25161;-71
2023/12/07 11:56:52;;;;;;;70.25;59.60;;;;;;;;;;5010165;28;25133;-71
2023/12/07 11:59:18;;;;;;;66.68;58.03;;;;;;;;;;5007572;28;25289;-73
2023/12/07 12:01:48;;;;;;;63.95;57.20;;;;;;;;;;5008811;28;25078;-70
2023/12/07 12:04:15;;;;;;;61.70;55.22;;;;;;;;;;5010643;28;25110;-74
2023/12/07 12:06:41;;;;;;;62.72;55.90;;;;;;;;;;5006766;28;25082;-71
2023/12/07 12:09:07;;;;;;;60.72;54.60;;;;;;;;;;5006030;28;25072;-71
2023/12/07 12:11:33;;;;;;;70.60;56.55;;;;;;;;;;5005039;28;25074;-73
2023/12/07 12:13:59;;;;;;;63.28;56.63;;;;;;;;;;5005577;28;25079;-72
2023/12/07 12:16:25;;;;;;;62.45;55.95;;;;;;;;;;5031086;28;25078;-73
2023/12/07 12:18:51;;;;;;;61.85;55.58;;;;;;;;;;5023277;28;25071;-73
2023/12/07 12:21:17;;;;;;;62.55;56.38;;;;;;;;;;5015726;28;25052;-73
2023/12/07 12:23:44;;;;;;;63.65;56.75;;;;;;;;;;5019968;28;25175;-73
2023/12/07 12:26:10;;;;;;;64.75;56.28;;;;;;;;;;5016865;28;25068;-71
2023/12/07 12:28:42;;;;;;;64.20;57.78;;;;;;;;;;5012426;28;25120;-72
2023/12/07 12:31:08;;;;;;;62.47;56.28;;;;;;;;;;5003765;28;25067;-72
2023/12/07 12:33:37;;;;;;;63.88;57.13;;;;;;;;;;5005418;28;25104;-72
2023/12/07 12:36:04;;;;;;;62.17;56.13;;;;;;;;;;5006242;28;25065;-72
2023/12/07 12:38:30;;;;;;;65.82;58.95;;;;;;;;;;5004865;28;25071;-71
2023/12/07 12:40:56;;;;;;;61.42;55.53;;;;;;;;;;5005235;28;25051;-71
2023/12/07 12:43:22;;;;;;;62.67;56.55;;;;;;;;;;5002371;28;25051;-71
2023/12/07 12:45:48;;;;;;;65.32;58.38;;;;;;;;;;5004879;28;25055;-74
2023/12/07 12:48:14;;;;;;;63.10;56.65;;;;;;;;;;5003864;28;25086;-72
2023/12/07 12:50:41;;;;;;;62.38;56.17;;;;;;;;;;5007109;28;25052;-72
2023/12/07 12:53:09;;;;;;;63.03;56.40;;;;;;;;;;5011453;28;25050;-73
2023/12/07 12:55:36;;;;;;;61.22;55.03;;;;;;;;;;4999112;28;25076;-72
2023/12/07 12:58:05;;;;;;;64.43;57.83;;;;;;;;;;5000039;28;25044;-73
2023/12/07 13:00:32;;;;;;;62.60;55.80;;;;;;;;;;5002217;28;25099;-71
2023/12/07 13:02:59;;;;;;;61.75;55.05;;;;;;;;;;5010783;28;25322;-72
2023/12/07 13:05:25;;;;;;;61.05;54.97;;;;;;;;;;5011533;28;25064;-72
2023/12/07 13:07:51;;;;;;;62.83;56.25;;;;;;;;;;5005864;28;25073;-71
2023/12/07 13:10:17;;;;;;;60.60;54.17;;;;;;;;;;5001249;28;25083;-72
2023/12/07 13:12:45;;;;;;;61.47;55.10;;;;;;;;;;5003483;28;25129;-72
2023/12/07 13:15:12;;;;;;;59.20;53.22;;;;;;;;;;4994497;28;25095;-71
2023/12/07 13:17:38;;;;;;;59.20;53.50;;;;;;;;;;5020258;28;25358;-72
2023/12/07 13:20:10;;;;;;;61.78;55.40;;;;;;;;;;5002135;28;25059;-71
2023/12/07 13:22:46;;;;;;;61.75;55.35;;;;;;;;;;5004559;28;25055;-71
2023/12/07 13:25:14;;;;;;;59.80;54.03;;;;;;;;;;5004913;28;25058;-72
2023/12/07 13:27:40;;;;;;;59.65;53.97;;;;;;;;;;5004473;28;25046;-72
2023/12/07 13:30:06;;;;;;;62.75;56.42;;;;;;;;;;5005100;28;25064;-72
2023/12/07 13:32:36;;;;;;;60.97;55.10;;;;;;;;;;5006169;28;25066;-72
2023/12/07 13:35:03;;;;;;;60.72;54.83;;;;;;;;;;5007702;28;25116;-73
2023/12/07 13:37:29;;;;;;;60.90;54.92;;;;;;;;;;5007765;28;25052;-72
2023/12/07 13:39:59;;;;;;;60.20;53.83;;;;;;;;;;5008697;28;25063;-72
2023/12/07 13:42:26;;;;;;;59.63;53.75;;;;;;;;;;5016661;28;25071;-72
2023/12/07 13:45:00;;;;;;;60.85;54.95;;;;;;;;;;5012427;28;25088;-72
2023/12/07 13:47:31;;;;;;;62.45;56.08;;;;;;;;;;5018399;28;25068;-72
2023/12/07 13:50:00;;;;;;;57.88;52.38;;;;;;;;;;5020800;28;25075;-74
2023/12/07 13:52:28;;;;;;;59.33;53.63;;;;;;;;;;5012900;28;25113;-72
2023/12/07 13:54:54;;;;;;;58.53;52.83;;;;;;;;;;5007529;28;25054;-72
2023/12/07 13:57:21;;;;;;;55.88;50.45;;;;;;;;;;5012120;28;25140;-71
2023/12/07 13:59:47;;;;;;;57.05;51.92;;;;;;;;;;5010724;28;25071;-72
2023/12/07 14:02:13;;;;;;;55.22;50.38;;;;;;;;;;5009229;28;25129;-72
2023/12/07 14:04:39;;;;;;;53.95;48.83;;;;;;;;;;5009256;28;25140;-73
2023/12/07 14:07:12;;;;;;;55.97;50.88;;;;;;;;;;5007217;28;25076;-73
2023/12/07 14:09:40;;;;;;;54.53;49.72;;;;;;;;;;5008274;28;25068;-71